Time;durP1;ratioP1;P1;durP2;ratioP2;P2;SDS_P1;SDS_P2;PMS_P1;PMS_P2;Temp;Humidity;BMP_temperature;BMP_pressure;BME280_temperature;BME280_humidity;BME280_pressure;Samples;Min_cycle;Max_cycle;Signal;HPM_P1;HPM_P2
2021/09/16 00:00:11;;;;;;;38.15;17.37;;;;;;;9.26;70.52;101107.06;1750266;80;20919;-62
2021/09/16 00:02:42;;;;;;;28.73;15.53;;;;;;;9.26;70.46;101111.45;1743723;82;21445;-62
2021/09/16 00:05:10;;;;;;;32.48;16.48;;;;;;;9.24;70.42;101110.67;1736874;82;20885;-62
2021/09/16 00:07:38;;;;;;;35.03;17.05;;;;;;;9.22;70.40;101110.73;1736855;81;20885;-61
2021/09/16 00:10:08;;;;;;;32.13;16.90;;;;;;;9.22;70.43;101112.52;1737089;82;21901;-61
2021/09/16 00:12:37;;;;;;;33.33;16.82;;;;;;;9.19;70.43;101113.98;1736723;82;21403;-61
2021/09/16 00:15:06;;;;;;;29.77;15.48;;;;;;;9.17;70.61;101109.27;1736128;81;20897;-62
2021/09/16 00:17:34;;;;;;;26.97;16.70;;;;;;;9.17;70.62;101111.89;1736213;81;21395;-60
2021/09/16 00:20:01;;;;;;;26.37;15.08;;;;;;;9.17;70.63;101104.03;1736580;82;21022;-62
2021/09/16 00:22:28;;;;;;;27.93;16.30;;;;;;;9.15;70.58;101106.72;1736476;82;21764;-61
2021/09/16 00:24:56;;;;;;;26.93;16.17;;;;;;;9.11;70.51;101108.64;1736161;82;21304;-62
2021/09/16 00:27:24;;;;;;;27.55;15.15;;;;;;;9.08;70.49;101107.45;1736158;81;21006;-63
2021/09/16 00:29:50;;;;;;;25.08;14.75;;;;;;;9.06;70.50;101103.22;1736257;82;20897;-62
2021/09/16 00:32:17;;;;;;;25.85;14.50;;;;;;;9.04;70.64;101109.82;1736319;81;20920;-62
2021/09/16 00:34:45;;;;;;;22.52;13.55;;;;;;;9.03;70.77;101115.14;1736542;82;21402;-62
2021/09/16 00:37:12;;;;;;;27.42;14.05;;;;;;;9.01;70.93;101113.05;1736410;82;20944;-62
2021/09/16 00:39:38;;;;;;;25.52;13.75;;;;;;;8.99;71.07;101102.65;1736284;82;21371;-62
2021/09/16 00:42:06;;;;;;;24.95;14.70;;;;;;;8.98;71.32;101111.86;1736182;81;20905;-61
2021/09/16 00:44:33;;;;;;;32.35;15.63;;;;;;;8.96;71.46;101107.16;1736192;82;20928;-62
2021/09/16 00:47:00;;;;;;;24.95;13.55;;;;;;;8.94;71.60;101102.02;1736501;82;21165;-62
2021/09/16 00:49:26;;;;;;;24.87;13.45;;;;;;;8.93;71.68;101102.45;1736171;81;20937;-62
2021/09/16 00:51:54;;;;;;;26.33;14.20;;;;;;;8.92;71.68;101095.54;1736109;82;21375;-63
2021/09/16 00:54:21;;;;;;;44.83;16.62;;;;;;;8.91;71.67;101099.52;1736207;81;20996;-61
2021/09/16 00:56:48;;;;;;;32.45;15.83;;;;;;;8.91;71.67;101104.32;1715620;82;21015;-62
2021/09/16 00:59:19;;;;;;;34.58;19.30;;;;;;;8.91;71.64;101098.22;1736299;81;20992;-62
2021/09/16 01:01:47;;;;;;;41.23;19.48;;;;;;;8.90;71.72;101101.77;1736483;82;20929;-62
2021/09/16 01:04:17;;;;;;;61.37;22.87;;;;;;;8.88;71.67;101107.05;1750158;81;20861;-62
2021/09/16 01:06:46;;;;;;;53.42;20.15;;;;;;;8.87;71.53;101107.11;1750225;82;20939;-62
2021/09/16 01:09:13;;;;;;;43.68;21.57;;;;;;;8.84;71.55;101106.80;1722930;82;21058;-61
2021/09/16 01:11:41;;;;;;;38.90;18.40;;;;;;;8.83;71.47;101116.88;1750189;82;21442;-62
2021/09/16 01:14:09;;;;;;;30.52;16.42;;;;;;;8.82;71.34;101119.09;1750106;82;21363;-61
2021/09/16 01:16:38;;;;;;;38.92;17.65;;;;;;;8.81;71.29;101122.64;1750178;82;20884;-63
2021/09/16 01:19:05;;;;;;;30.68;17.25;;;;;;;8.80;71.42;101118.77;1750224;82;20936;-62
2021/09/16 01:21:34;;;;;;;40.30;20.48;;;;;;;8.78;71.59;101117.99;1750096;82;20902;-62
2021/09/16 01:24:00;;;;;;;39.58;21.17;;;;;;;8.76;71.73;101111.98;1750186;82;21106;-62
2021/09/16 01:26:29;;;;;;;41.60;23.12;;;;;;;8.75;71.92;101124.21;1749981;82;21359;-62
2021/09/16 01:28:57;;;;;;;47.90;24.50;;;;;;;8.74;72.03;101122.97;1750181;82;20873;-62
2021/09/16 01:31:41;;;;;;;51.23;27.93;;;;;;;8.73;72.07;101122.59;1750367;82;21461;-62
2021/09/16 01:34:09;;;;;;;49.75;24.15;;;;;;;8.71;72.15;101123.52;1750272;82;20853;-62
2021/09/16 01:36:38;;;;;;;47.27;25.70;;;;;;;8.67;72.25;101115.41;1750388;82;21103;-61
2021/09/16 01:39:08;;;;;;;50.92;24.72;;;;;;;8.65;72.27;101118.55;1750175;82;21346;-62
2021/09/16 01:41:35;;;;;;;48.25;24.18;;;;;;;8.62;72.19;101117.36;1750404;82;21307;-62
2021/09/16 01:44:02;;;;;;;43.10;23.52;;;;;;;8.59;71.98;101114.89;1750127;82;20921;-62
2021/09/16 01:46:30;;;;;;;49.13;24.82;;;;;;;8.54;71.85;101109.45;1750188;80;20853;-62
2021/09/16 01:49:00;;;;;;;36.63;22.02;;;;;;;8.50;72.00;101109.60;1750203;82;21149;-62
2021/09/16 01:51:27;;;;;;;41.00;22.55;;;;;;;8.48;72.12;101107.52;1750265;82;20916;-62
2021/09/16 01:53:56;;;;;;;39.60;22.00;;;;;;;8.49;72.18;101110.53;1750059;80;21062;-62
2021/09/16 01:56:23;;;;;;;52.65;23.95;;;;;;;8.49;72.04;101107.92;1750171;82;20944;-62
2021/09/16 01:58:50;;;;;;;45.52;23.40;;;;;;;8.49;71.89;101108.35;1750200;82;20888;-62
2021/09/16 02:01:17;;;;;;;52.93;25.95;;;;;;;8.47;71.77;101109.75;1750223;82;21157;-61
2021/09/16 02:03:43;;;;;;;47.03;25.55;;;;;;;8.44;71.65;101117.70;1740747;81;20988;-63
2021/09/16 02:06:11;;;;;;;47.08;26.45;;;;;;;8.39;71.57;101117.49;1736280;82;21772;-62
2021/09/16 02:08:38;;;;;;;47.27;27.35;;;;;;;8.31;71.50;101121.72;1736138;82;20949;-62
2021/09/16 02:11:06;;;;;;;51.50;30.05;;;;;;;8.23;71.58;101116.84;1736195;81;20857;-62
2021/09/16 02:13:34;;;;;;;72.27;32.55;;;;;;;8.18;71.75;101112.27;1736078;81;21143;-61
2021/09/16 02:16:01;;;;;;;56.23;29.92;;;;;;;8.16;72.05;101118.02;1736202;82;20980;-62
2021/09/16 02:18:28;;;;;;;53.95;29.72;;;;;;;8.13;72.52;101116.81;1736179;81;21287;-61
2021/09/16 02:20:55;;;;;;;51.28;27.67;;;;;;;8.12;72.81;101128.20;1736054;82;20893;-62
2021/09/16 02:23:22;;;;;;;50.78;26.23;;;;;;;8.09;73.01;101125.26;1736163;82;20952;-61
2021/09/16 02:25:50;;;;;;;43.10;25.02;;;;;;;8.09;73.42;101127.88;1736172;82;21163;-61
2021/09/16 02:28:17;;;;;;;41.10;22.42;;;;;;;8.09;73.65;101133.53;1736210;82;21517;-62
2021/09/16 02:30:46;;;;;;;37.38;22.07;;;;;;;8.09;73.74;101136.14;1736196;82;21426;-61
2021/09/16 02:33:13;;;;;;;37.10;20.57;;;;;;;8.09;73.66;101132.22;1736063;82;20904;-61
2021/09/16 02:35:40;;;;;;;40.23;19.20;;;;;;;8.09;73.63;101132.22;1736222;82;20841;-61
2021/09/16 02:38:08;;;;;;;31.37;17.50;;;;;;;8.10;73.55;101131.33;1736260;82;21394;-62
2021/09/16 02:40:35;;;;;;;33.02;16.70;;;;;;;8.12;73.48;101131.27;1736343;81;21383;-62
2021/09/16 02:43:04;;;;;;;29.72;14.95;;;;;;;8.12;73.33;101130.80;1736162;82;20934;-62
2021/09/16 02:45:33;;;;;;;35.92;19.45;;;;;;;8.12;73.19;101128.20;1736121;82;20936;-62
2021/09/16 02:47:59;;;;;;;47.45;22.87;;;;;;;8.12;73.13;101132.11;1736656;82;21358;-62
2021/09/16 02:50:26;;;;;;;46.42;24.57;;;;;;;8.11;73.07;101129.09;1737027;82;21213;-61
2021/09/16 02:52:54;;;;;;;38.58;21.12;;;;;;;8.10;73.03;101135.24;1736325;82;20934;-62
2021/09/16 02:55:21;;;;;;;39.80;21.37;;;;;;;8.12;72.98;101135.19;1736171;81;20976;-62
2021/09/16 02:57:48;;;;;;;50.63;23.55;;;;;;;8.11;72.87;101130.40;1736125;82;20897;-62
2021/09/16 03:00:16;;;;;;;49.53;23.75;;;;;;;8.11;72.80;101125.17;1736177;82;20980;-62
2021/09/16 03:02:42;;;;;;;42.65;20.27;;;;;;;8.13;72.70;101126.42;1736070;82;21799;-61
2021/09/16 03:05:10;;;;;;;50.05;23.52;;;;;;;8.13;72.57;101128.57;1736117;82;20905;-61
2021/09/16 03:07:37;;;;;;;41.68;18.70;;;;;;;8.15;72.45;101125.91;1736019;82;21355;-62
2021/09/16 03:10:05;;;;;;;53.17;20.55;;;;;;;8.17;72.39;101130.61;1736294;82;20917;-61
2021/09/16 03:12:32;;;;;;;45.23;19.27;;;;;;;8.19;72.48;101124.87;1736131;82;21371;-62
2021/09/16 03:14:59;;;;;;;30.80;17.60;;;;;;;8.23;72.63;101140.35;1736020;81;21152;-62
2021/09/16 03:17:26;;;;;;;28.83;16.10;;;;;;;8.25;72.83;101126.77;1736174;81;20953;-62
2021/09/16 03:19:54;;;;;;;31.12;15.93;;;;;;;8.30;72.97;101136.56;1736076;82;21000;-62
2021/09/16 03:22:23;;;;;;;42.55;16.48;;;;;;;8.33;73.12;101151.25;1736041;82;21557;-61
2021/09/16 03:24:50;;;;;;;25.08;13.05;;;;;;;8.34;73.25;101147.75;1736153;82;20892;-62
2021/09/16 03:27:16;;;;;;;27.35;13.65;;;;;;;8.37;73.27;101146.30;1736195;81;21970;-60
2021/09/16 03:29:45;;;;;;;22.90;13.68;;;;;;;8.39;73.30;101146.24;1736132;82;20882;-61
2021/09/16 03:32:12;;;;;;;22.58;13.78;;;;;;;8.42;73.35;101146.97;1736021;81;21019;-62
2021/09/16 03:34:39;;;;;;;29.52;14.80;;;;;;;8.47;73.33;101149.39;1736064;81;20905;-62
2021/09/16 03:37:07;;;;;;;28.52;14.33;;;;;;;8.50;73.23;101147.97;1736244;82;20841;-62
2021/09/16 03:39:34;;;;;;;29.35;13.45;;;;;;;8.53;73.03;101153.05;1736132;82;21142;-61
2021/09/16 03:42:00;;;;;;;31.90;14.55;;;;;;;8.55;72.88;101149.08;1736167;82;20873;-63
2021/09/16 03:44:27;;;;;;;30.55;13.30;;;;;;;8.54;72.72;101154.77;1736026;82;20838;-62
2021/09/16 03:46:54;;;;;;;36.83;15.25;;;;;;;8.56;72.43;101159.48;1736290;82;21453;-64
2021/09/16 03:49:21;;;;;;;30.82;15.38;;;;;;;8.52;72.29;101157.06;1736209;82;20996;-64
2021/09/16 03:51:48;;;;;;;37.17;15.08;;;;;;;8.50;72.20;101161.88;1736300;81;21812;-62
2021/09/16 03:54:14;;;;;;;28.98;15.13;;;;;;;8.48;72.19;101166.78;1736470;81;20905;-62
2021/09/16 03:56:42;;;;;;;39.73;15.50;;;;;;;8.46;72.46;101167.30;1736527;82;21532;-62
2021/09/16 03:59:09;;;;;;;41.77;17.40;;;;;;;8.46;72.85;101172.53;1736341;82;21347;-62
2021/09/16 04:01:38;;;;;;;25.68;14.50;;;;;;;8.49;72.78;101172.39;1736239;81;20893;-62
2021/09/16 04:04:05;;;;;;;35.25;13.98;;;;;;;8.54;72.87;101170.45;1736236;81;21139;-63
2021/09/16 04:06:34;;;;;;;30.90;14.55;;;;;;;8.61;73.06;101173.66;1736134;82;20949;-62
2021/09/16 04:09:02;;;;;;;32.10;15.00;;;;;;;8.67;72.97;101172.06;1736126;82;20979;-62
2021/09/16 04:11:29;;;;;;;29.92;13.98;;;;;;;8.74;72.90;101166.98;1736242;82;20853;-62
2021/09/16 04:13:56;;;;;;;32.30;16.02;;;;;;;8.84;72.69;101176.57;1736271;81;20965;-61
2021/09/16 04:16:23;;;;;;;35.25;15.78;;;;;;;8.93;72.42;101177.00;1736115;82;21119;-63
2021/09/16 04:18:51;;;;;;;33.30;14.80;;;;;;;9.01;72.13;101181.07;1736157;81;21031;-62
2021/09/16 04:21:18;;;;;;;46.18;14.45;;;;;;;9.08;71.80;101178.56;1736189;82;20862;-62
2021/09/16 04:23:45;;;;;;;35.75;14.18;;;;;;;9.12;71.59;101179.66;1736169;82;20952;-71
2021/09/16 04:26:14;;;;;;;37.10;15.08;;;;;;;9.15;71.46;101177.83;1736298;82;20941;-71
2021/09/16 04:28:42;;;;;;;38.63;14.58;;;;;;;9.17;71.40;101182.53;1736358;82;21518;-72
2021/09/16 04:31:09;;;;;;;48.08;13.95;;;;;;;9.17;71.45;101187.30;1735811;82;20912;-72
2021/09/16 04:33:35;;;;;;;40.23;14.40;;;;;;;9.16;71.61;101185.63;1736453;82;20980;-72
2021/09/16 04:36:03;;;;;;;44.05;15.13;;;;;;;9.18;71.76;101182.48;1736239;82;20936;-71
2021/09/16 04:38:30;;;;;;;39.05;14.10;;;;;;;9.19;71.96;101191.17;1736127;82;20929;-72
2021/09/16 04:40:57;;;;;;;60.28;18.48;;;;;;;9.25;72.27;101191.74;1736169;82;21974;-71
2021/09/16 04:43:24;;;;;;;47.43;16.32;;;;;;;9.37;72.49;101192.09;1736240;82;20972;-72
2021/09/16 04:45:51;;;;;;;45.38;17.52;;;;;;;9.49;72.50;101196.32;1736231;82;20912;-72
2021/09/16 04:48:18;;;;;;;50.35;14.80;;;;;;;9.67;72.46;101191.12;1736321;82;20905;-70
2021/09/16 04:50:44;;;;;;;49.00;12.55;;;;;;;10.01;72.82;101194.78;1736198;82;21039;-70
2021/09/16 04:53:12;;;;;;;48.08;13.15;;;;;;;10.49;72.42;101195.91;1736100;81;21705;-66
2021/09/16 04:55:41;;;;;;;37.55;11.80;;;;;;;11.12;71.25;101190.90;1736356;82;20921;-67
2021/09/16 04:58:07;;;;;;;28.00;12.15;;;;;;;11.85;69.68;101197.02;1736199;81;20893;-69
2021/09/16 05:00:35;;;;;;;47.85;12.47;;;;;;;12.56;67.40;101201.72;1736124;82;20976;-70
2021/09/16 05:03:01;;;;;;;53.60;13.70;;;;;;;13.24;65.18;101189.25;1735972;82;20945;-69
2021/09/16 05:05:28;;;;;;;51.60;12.68;;;;;;;13.96;63.13;101192.23;1736143;81;21527;-69
2021/09/16 05:07:55;;;;;;;56.05;12.47;;;;;;;14.73;61.03;101192.45;1735940;82;21434;-70
2021/09/16 05:10:22;;;;;;;50.35;13.45;;;;;;;15.50;58.81;101191.42;1735969;82;20901;-70
2021/09/16 05:12:50;;;;;;;46.35;13.62;;;;;;;16.14;56.73;101191.66;1736010;82;21351;-69
2021/09/16 05:15:19;;;;;;;52.23;12.10;;;;;;;16.69;54.85;101192.79;1736070;81;20889;-70
2021/09/16 05:17:47;;;;;;;60.98;12.60;;;;;;;17.27;53.39;101193.22;1735828;82;21031;-71
2021/09/16 05:20:14;;;;;;;58.95;15.05;;;;;;;17.76;52.01;101191.48;1736034;82;20968;-69
2021/09/16 05:22:43;;;;;;;32.03;11.33;;;;;;;18.05;50.77;101200.20;1735849;81;21466;-68
2021/09/16 05:25:10;;;;;;;28.60;9.75;;;;;;;18.22;49.99;101198.33;1736343;82;20945;-68
2021/09/16 05:27:37;;;;;;;26.62;9.50;;;;;;;18.22;49.19;101201.47;1736358;82;20877;-67
2021/09/16 05:30:05;;;;;;;19.80;10.00;;;;;;;18.12;49.10;101197.88;1735938;81;22115;-69
2021/09/16 05:32:32;;;;;;;19.00;8.38;;;;;;;17.91;49.28;101203.16;1736187;82;20971;-68
2021/09/16 05:34:59;;;;;;;21.12;8.55;;;;;;;17.70;49.34;101192.46;1736177;82;20877;-69
2021/09/16 05:37:29;;;;;;;18.42;8.00;;;;;;;17.60;49.79;101198.48;1735973;81;20873;-68
2021/09/16 05:39:56;;;;;;;16.75;7.50;;;;;;;17.64;50.02;101204.89;1736006;82;20940;-69
2021/09/16 05:42:23;;;;;;;16.20;7.65;;;;;;;17.74;49.78;101204.02;1736280;82;21515;-68
2021/09/16 05:44:50;;;;;;;21.23;9.58;;;;;;;17.94;49.71;101205.55;1736070;82;20973;-69
2021/09/16 05:47:17;;;;;;;15.58;8.70;;;;;;;18.30;49.21;101208.33;1736399;82;21458;-68
2021/09/16 05:49:46;;;;;;;13.10;6.83;;;;;;;18.81;48.35;101210.24;1736074;82;20972;-69
2021/09/16 05:52:14;;;;;;;12.07;7.85;;;;;;;19.44;47.20;101211.42;1736177;82;20945;-68
2021/09/16 05:54:41;;;;;;;12.95;8.00;;;;;;;20.11;45.78;101210.88;1736076;82;21966;-70
2021/09/16 05:57:08;;;;;;;10.20;6.97;;;;;;;20.73;44.31;101211.41;1736223;82;20909;-68
2021/09/16 05:59:35;;;;;;;15.55;8.58;;;;;;;21.32;43.21;101207.06;1736108;82;20873;-70
2021/09/16 06:02:02;;;;;;;14.70;7.37;;;;;;;21.92;41.91;101203.93;1735927;81;20960;-69
2021/09/16 06:04:30;;;;;;;13.38;7.42;;;;;;;22.48;40.46;101207.28;1739586;81;20892;-68
2021/09/16 06:07:03;;;;;;;14.85;7.72;;;;;;;22.98;39.54;101212.44;1744584;82;21516;-69
2021/09/16 06:09:26;;;;;;;10.13;7.53;;;;;;;23.45;38.50;101209.34;1714909;82;20936;-72
2021/09/16 06:11:53;;;;;;;11.63;7.35;;;;;;;23.83;37.78;101208.97;1745695;82;20996;-72
2021/09/16 06:14:20;;;;;;;13.95;7.22;;;;;;;24.19;37.27;101213.05;1746786;82;20897;-69
2021/09/16 06:16:48;;;;;;;15.28;7.65;;;;;;;24.53;36.58;101209.89;1744258;81;20917;-68
2021/09/16 06:19:15;;;;;;;12.68;6.70;;;;;;;24.91;35.81;101211.50;1744332;81;21573;-69
2021/09/16 06:21:43;;;;;;;9.15;6.50;;;;;;;25.31;35.17;101217.27;1744204;80;21403;-70
2021/09/16 06:24:11;;;;;;;15.78;7.33;;;;;;;25.62;34.41;101208.39;1744220;82;20912;-69
2021/09/16 06:26:38;;;;;;;7.78;6.12;;;;;;;25.88;33.78;101211.27;1744518;82;20944;-68
2021/09/16 06:29:05;;;;;;;14.90;6.08;;;;;;;26.15;32.62;101214.79;1743941;82;20900;-68
2021/09/16 06:31:32;;;;;;;7.85;6.10;;;;;;;26.44;31.80;101213.20;1744157;82;21056;-69
2021/09/16 06:34:00;;;;;;;10.10;5.72;;;;;;;26.73;31.36;101216.48;1744017;81;20936;-70
2021/09/16 06:36:26;;;;;;;11.57;5.60;;;;;;;27.04;31.32;101217.66;1744540;81;20870;-70
2021/09/16 06:38:55;;;;;;;9.60;5.47;;;;;;;27.32;30.15;101217.53;1744233;81;21078;-70
2021/09/16 06:41:22;;;;;;;14.18;5.90;;;;;;;27.52;29.31;101219.13;1744063;81;22224;-68
2021/09/16 06:43:50;;;;;;;9.10;5.25;;;;;;;27.75;28.96;101216.27;1744142;82;21136;-68
2021/09/16 06:46:16;;;;;;;7.42;4.47;;;;;;;27.95;28.53;101215.16;1744438;82;21440;-68
2021/09/16 06:48:44;;;;;;;6.78;4.78;;;;;;;27.88;27.62;101207.86;1744097;82;20960;-68
2021/09/16 06:51:11;;;;;;;6.58;5.28;;;;;;;27.81;27.87;101213.64;1744149;82;20850;-68
2021/09/16 06:53:38;;;;;;;7.55;5.05;;;;;;;27.74;28.11;101215.44;1744249;81;20904;-68
2021/09/16 06:56:05;;;;;;;7.87;5.90;;;;;;;27.74;28.39;101220.00;1744230;82;21192;-66
2021/09/16 06:58:33;;;;;;;10.68;5.17;;;;;;;27.82;28.57;101217.20;1744041;82;20912;-65
2021/09/16 07:01:00;;;;;;;9.45;5.40;;;;;;;27.86;28.52;101218.00;1744481;82;20877;-66
2021/09/16 07:03:29;;;;;;;8.90;4.60;;;;;;;27.85;28.52;101214.96;1744165;82;21363;-66
2021/09/16 07:05:55;;;;;;;6.72;4.15;;;;;;;27.76;28.64;101224.69;1736996;81;20936;-67
2021/09/16 07:08:22;;;;;;;7.08;4.35;;;;;;;27.83;28.16;101221.03;1735960;82;21130;-67
2021/09/16 07:10:49;;;;;;;11.35;5.10;;;;;;;28.10;28.33;101218.14;1736221;82;20941;-68
2021/09/16 07:13:17;;;;;;;5.53;4.25;;;;;;;28.34;28.50;101223.31;1735945;81;20968;-67
2021/09/16 07:15:44;;;;;;;7.62;4.60;;;;;;;28.48;28.12;101222.41;1736410;82;20979;-68
2021/09/16 07:18:13;;;;;;;11.88;4.95;;;;;;;28.64;27.93;101221.31;1736054;81;20941;-69
2021/09/16 07:20:41;;;;;;;7.95;4.72;;;;;;;28.86;27.59;101222.91;1736009;81;20861;-66
2021/09/16 07:23:08;;;;;;;7.97;4.95;;;;;;;29.02;27.32;101216.35;1736059;82;20885;-69
2021/09/16 07:25:35;;;;;;;8.65;5.20;;;;;;;29.13;27.18;101217.17;1736064;81;21430;-67
2021/09/16 07:28:04;;;;;;;6.85;4.90;;;;;;;29.33;27.17;101223.19;1736109;82;20936;-66
2021/09/16 07:30:31;;;;;;;12.40;5.42;;;;;;;29.62;27.00;101217.98;1736489;82;20842;-67
2021/09/16 07:32:58;;;;;;;8.93;4.37;;;;;;;29.85;26.57;101223.06;1736070;82;22452;-67
2021/09/16 07:35:25;;;;;;;5.58;4.25;;;;;;;30.07;26.26;101218.84;1736098;82;20980;-67
2021/09/16 07:37:53;;;;;;;7.35;4.53;;;;;;;30.26;25.37;101221.23;1736232;82;20968;-68
2021/09/16 07:40:21;;;;;;;8.38;5.50;;;;;;;30.37;24.83;101212.52;1736196;82;21000;-71
2021/09/16 07:42:48;;;;;;;10.98;5.42;;;;;;;30.22;24.67;101215.95;1736131;82;21320;-68
2021/09/16 07:45:15;;;;;;;9.48;4.37;;;;;;;30.08;24.50;101214.59;1736470;82;21103;-68
2021/09/16 07:47:42;;;;;;;9.23;4.92;;;;;;;29.88;24.66;101206.94;1736029;82;21367;-69
2021/09/16 07:50:09;;;;;;;7.87;4.97;;;;;;;29.92;24.77;101214.96;1736513;82;20897;-66
2021/09/16 07:52:36;;;;;;;7.15;4.62;;;;;;;29.72;24.66;101218.97;1736208;82;20933;-68
2021/09/16 07:55:05;;;;;;;6.05;4.35;;;;;;;29.58;24.83;101212.67;1736046;81;20972;-67
2021/09/16 07:57:32;;;;;;;10.25;4.87;;;;;;;29.71;25.23;101216.80;1736096;81;21481;-68
2021/09/16 07:59:59;;;;;;;8.15;4.37;;;;;;;29.93;25.11;101206.66;1736109;82;20933;-68
2021/09/16 08:02:26;;;;;;;6.80;5.08;;;;;;;30.16;25.39;101208.12;1736127;82;20897;-69
2021/09/16 08:04:53;;;;;;;13.43;9.25;;;;;;;30.37;24.75;101201.70;1740656;81;21485;-68
2021/09/16 08:07:21;;;;;;;9.83;6.03;;;;;;;30.61;24.62;101198.86;1750319;82;20999;-66
2021/09/16 08:09:49;;;;;;;6.08;5.10;;;;;;;30.87;23.98;101193.13;1750101;82;21985;-67
2021/09/16 08:12:18;;;;;;;7.75;4.58;;;;;;;30.93;23.43;101193.64;1749967;82;20900;-68
2021/09/16 08:14:44;;;;;;;6.17;4.85;;;;;;;31.10;23.40;101192.09;1750387;82;21330;-67
2021/09/16 08:17:11;;;;;;;9.65;4.65;;;;;;;31.27;23.14;101197.05;1750346;82;20936;-68
2021/09/16 08:19:40;;;;;;;7.05;5.00;;;;;;;31.44;22.63;101194.70;1750248;80;20856;-67
2021/09/16 08:22:08;;;;;;;9.13;5.28;;;;;;;31.56;22.48;101186.20;1750217;82;21346;-68
2021/09/16 08:24:36;;;;;;;12.68;5.20;;;;;;;31.55;22.00;101184.02;1750064;81;20975;-68
2021/09/16 08:27:04;;;;;;;6.12;4.10;;;;;;;31.52;21.81;101184.97;1750103;82;20928;-68
2021/09/16 08:29:31;;;;;;;7.30;4.75;;;;;;;31.61;21.95;101178.23;1750320;82;20961;-66
2021/09/16 08:31:58;;;;;;;8.10;4.03;;;;;;;31.74;21.89;101165.12;1750153;80;21397;-66
2021/09/16 08:34:26;;;;;;;5.92;4.22;;;;;;;31.92;21.49;101163.83;1750546;82;21501;-67
2021/09/16 08:36:53;;;;;;;6.20;4.00;;;;;;;31.92;21.43;101164.36;1750061;80;21548;-67
2021/09/16 08:39:23;;;;;;;4.92;3.80;;;;;;;31.59;21.24;101160.84;1750029;82;20998;-66
2021/09/16 08:41:50;;;;;;;5.90;3.92;;;;;;;31.49;21.52;101156.95;1750336;82;20887;-67
2021/09/16 08:44:17;;;;;;;3.87;3.47;;;;;;;31.67;21.76;101148.06;1750120;82;21382;-65
2021/09/16 08:46:44;;;;;;;9.15;3.90;;;;;;;31.80;21.51;101144.73;1749919;82;21156;-66
2021/09/16 08:49:11;;;;;;;10.32;3.60;;;;;;;32.07;21.85;101139.66;1750006;80;20861;-68
2021/09/16 08:51:41;;;;;;;7.30;3.42;;;;;;;32.28;21.72;101137.88;1750340;82;21402;-68
2021/09/16 08:54:10;;;;;;;8.73;3.90;;;;;;;32.37;21.66;101136.56;1750284;82;20975;-66
2021/09/16 08:56:40;;;;;;;7.97;4.05;;;;;;;32.55;21.47;101137.63;1750383;82;20908;-67
2021/09/16 08:59:09;;;;;;;6.28;3.27;;;;;;;32.60;20.96;101139.99;1750488;82;21330;-70
2021/09/16 09:01:36;;;;;;;5.40;3.65;;;;;;;32.57;20.78;101141.81;1750294;82;20916;-66
2021/09/16 09:04:03;;;;;;;9.85;3.27;;;;;;;32.56;20.66;101142.85;1749982;82;21524;-67
2021/09/16 09:06:42;;;;;;;3.40;2.72;;;;;;;32.62;20.54;101145.20;1737985;81;20948;-66
2021/09/16 09:09:18;;;;;;;9.73;3.47;;;;;;;32.64;20.36;101134.95;1736089;81;20854;-67
2021/09/16 09:12:06;;;;;;;3.92;2.00;;;;;;;32.62;19.89;101131.09;1736017;82;21154;-67
2021/09/16 09:14:41;;;;;;;3.98;1.80;;;;;;;32.37;19.74;101135.70;1736053;82;21484;-66
2021/09/16 09:17:22;;;;;;;6.92;2.37;;;;;;;32.07;19.81;101126.09;1736143;82;21351;-66
2021/09/16 09:19:51;;;;;;;3.35;1.87;;;;;;;31.98;20.32;101130.96;1736065;81;21041;-67
2021/09/16 09:22:19;;;;;;;5.37;2.30;;;;;;;32.04;20.46;101120.58;1736429;82;21415;-67
2021/09/16 09:24:47;;;;;;;6.22;2.00;;;;;;;32.25;19.99;101122.05;1715273;82;21123;-67
2021/09/16 09:27:35;;;;;;;6.78;2.10;;;;;;;32.20;20.35;101125.43;1736253;82;20945;-67
2021/09/16 09:30:08;;;;;;;2.50;1.27;;;;;;;32.04;19.90;101122.44;1736086;82;20964;-68
2021/09/16 09:32:53;;;;;;;3.62;1.45;;;;;;;31.99;20.18;101125.82;1736627;81;21099;-66
2021/09/16 09:35:36;;;;;;;3.25;1.75;;;;;;;32.08;19.71;101125.84;1738256;82;20921;-66
2021/09/16 09:38:16;;;;;;;4.30;1.15;;;;;;;31.99;19.50;101128.53;1738884;82;21342;-65
2021/09/16 09:40:45;;;;;;;3.85;1.52;;;;;;;32.14;19.60;101122.25;1737890;81;20960;-68
2021/09/16 09:43:32;;;;;;;2.42;1.55;;;;;;;32.33;19.86;101116.34;1737271;82;20881;-67
2021/09/16 09:46:16;;;;;;;4.92;1.45;;;;;;;32.55;19.48;101118.13;1736111;81;20980;-67
2021/09/16 09:48:47;;;;;;;4.17;1.37;;;;;;;32.73;19.90;101113.75;1736258;82;20889;-68
2021/09/16 09:51:14;;;;;;;5.03;1.27;;;;;;;32.77;19.03;101108.98;1726902;82;21150;-69
2021/09/16 09:53:44;;;;;;;5.85;1.35;;;;;;;32.50;19.19;101112.48;1735976;82;20944;-70
2021/09/16 09:56:18;;;;;;;4.08;1.30;;;;;;;32.35;19.82;101111.52;1736057;81;20976;-68
2021/09/16 09:58:46;;;;;;;5.08;1.55;;;;;;;32.44;19.49;101110.70;1736289;82;20892;-68
2021/09/16 10:01:35;;;;;;;5.87;1.55;;;;;;;32.66;19.44;101111.61;1736053;82;21007;-68
2021/09/16 10:04:27;;;;;;;6.22;1.47;;;;;;;32.81;19.03;101106.62;1736050;82;21872;-67
2021/09/16 10:06:56;;;;;;;6.40;1.60;;;;;;;32.75;18.63;101110.25;1735739;81;21004;-68
2021/09/16 10:09:23;;;;;;;5.85;1.67;;;;;;;32.72;18.88;101102.56;1736052;81;20929;-68
2021/09/16 10:11:51;;;;;;;4.90;1.77;;;;;;;32.73;18.78;101101.53;1735948;82;20862;-67
2021/09/16 10:14:20;;;;;;;4.78;1.20;;;;;;;32.87;18.92;101105.72;1736073;81;20920;-68
2021/09/16 10:16:47;;;;;;;1.75;1.15;;;;;;;32.72;18.46;101100.67;1736053;82;21537;-68
2021/09/16 10:19:16;;;;;;;1.70;1.07;;;;;;;32.50;18.67;101098.91;1736015;81;21000;-66
2021/09/16 10:21:43;;;;;;;6.67;1.22;;;;;;;32.21;18.37;101105.37;1736094;82;20964;-66
2021/09/16 10:24:16;;;;;;;3.30;1.20;;;;;;;32.08;18.62;101097.34;1736034;81;21410;-67
2021/09/16 10:26:48;;;;;;;4.92;1.00;;;;;;;32.18;18.71;101094.97;1736251;82;20964;-67
2021/09/16 10:29:30;;;;;;;5.83;1.30;;;;;;;32.33;18.63;101091.91;1736053;82;21548;-67
2021/09/16 10:32:11;;;;;;;6.08;1.30;;;;;;;32.22;18.61;101096.72;1713918;82;20965;-68
2021/09/16 10:34:49;;;;;;;8.93;1.17;;;;;;;31.87;18.93;101093.67;1732926;82;20858;-67
2021/09/16 10:37:18;;;;;;;1.07;0.80;;;;;;;31.65;19.70;101094.58;1736185;82;20900;-69
2021/09/16 10:39:46;;;;;;;3.40;0.88;;;;;;;31.71;19.09;101093.17;1736005;82;21467;-69
2021/09/16 10:42:14;;;;;;;2.10;0.80;;;;;;;31.80;18.92;101098.62;1736036;82;21138;-68
2021/09/16 10:44:45;;;;;;;3.90;1.40;;;;;;;31.81;18.93;101097.55;1736123;82;20941;-66
2021/09/16 10:47:22;;;;;;;6.87;1.00;;;;;;;31.85;18.92;101096.59;1735935;82;20892;-67
2021/09/16 10:49:51;;;;;;;3.42;1.40;;;;;;;31.81;19.10;101094.84;1735991;82;21367;-67
2021/09/16 10:52:23;;;;;;;2.52;1.05;;;;;;;31.79;19.43;101095.61;1736093;82;20952;-66
2021/09/16 10:54:57;;;;;;;4.63;1.53;;;;;;;31.78;18.86;101090.41;1736327;81;21135;-66
2021/09/16 10:57:35;;;;;;;5.28;1.07;;;;;;;31.59;18.81;101094.91;1735745;82;20976;-66
2021/09/16 11:00:17;;;;;;;2.98;1.45;;;;;;;31.52;19.18;101086.83;1736063;82;20912;-68
2021/09/16 11:02:49;;;;;;;1.77;1.07;;;;;;;31.61;19.71;101081.97;1735938;82;21442;-68
2021/09/16 11:05:21;;;;;;;2.95;1.40;;;;;;;31.67;19.83;101083.80;1735930;82;21378;-66
2021/09/16 11:07:59;;;;;;;2.42;1.15;;;;;;;31.57;19.34;101082.09;1736140;82;21127;-68
2021/09/16 11:10:31;;;;;;;1.85;1.12;;;;;;;31.05;19.21;101078.13;1735765;81;20925;-68
2021/09/16 11:13:05;;;;;;;1.98;1.00;;;;;;;30.78;20.09;101080.11;1736199;82;20929;-67
2021/09/16 11:15:34;;;;;;;6.87;1.10;;;;;;;30.48;19.81;101076.58;1702163;82;20948;-67
2021/09/16 11:20:55;;;;;;;2.55;1.27;;;;;;;30.08;20.67;101070.36;1816341;79;22662;-68
2021/09/16 11:23:37;;;;;;;2.87;1.00;;;;;;;29.99;20.96;101072.45;1789492;80;21439;-66
2021/09/16 11:26:04;;;;;;;2.35;1.20;;;;;;;29.88;20.85;101060.91;1761768;80;21529;-69
2021/09/16 11:28:31;;;;;;;5.90;0.98;;;;;;;29.40;20.48;101059.20;1789319;80;20833;-69